Terminal Aerodrome Forecast
Issued by NWS

Home | Current Version | Previous Version | Text Only | Print | Product List | Glossary On
Versions: 1 2 3 4 5 6 7 8 9 10 11 12 13 14 15 16 17 18 19 20 21
000
FTUS45 KBOU 291136
TAFAPA
TAF
KAPA 291136Z 2912/3012 18005KT P6SM FEW220
     FM291300 VRB05KT P6SM FEW150 SCT220
     FM291600 06007KT P6SM FEW100 SCT150 SCT220
     FM292100 08011KT P6SM VCTS SCT090CB BKN130
     FM300300 10011KT P6SM VCTS BKN080CB OVC110
      TEMPO 3003/3007 VRB20G30KT -TSRA BKN050CB
     FM300900 06008KT P6SM VCSH BKN017 OVC040=

USA.gov is the U.S. government's official web portal to all federal, state and local government web resources and services.